Time;durP1;ratioP1;P1;durP2;ratioP2;P2;SDS_P1;SDS_P2;PMS_P1;PMS_P2;Temp;Humidity;BMP_temperature;BMP_pressure;BME280_temperature;BME280_humidity;BME280_pressure;Samples;Min_cycle;Max_cycle;Signal;HPM_P1;HPM_P2
2023/11/30 00:02:07;;;;;;;46.67;18.75;;;-0.60;99.90;;;;;;5060768;28;20017;-71
2023/11/30 00:04:33;;;;;;;50.38;19.65;;;-0.60;99.90;;;;;;5061678;28;20029;-73
2023/11/30 00:07:00;;;;;;;47.80;19.23;;;-0.60;99.90;;;;;;5062779;28;20032;-73
2023/11/30 00:09:26;;;;;;;46.78;17.75;;;-0.60;99.90;;;;;;5060697;28;20436;-73
2023/11/30 00:11:52;;;;;;;48.28;18.88;;;-0.60;99.90;;;;;;5062351;28;20448;-73
2023/11/30 00:14:17;;;;;;;44.05;18.27;;;-0.60;99.90;;;;;;5060213;28;20060;-71
2023/11/30 00:16:43;;;;;;;49.53;18.83;;;-0.60;99.90;;;;;;5061669;28;20029;-73
2023/11/30 00:19:08;;;;;;;42.38;18.38;;;-0.60;99.90;;;;;;5061552;28;20025;-73
2023/11/30 00:21:34;;;;;;;45.55;19.67;;;-0.50;99.90;;;;;;5062203;28;20037;-72
2023/11/30 00:23:59;;;;;;;46.95;20.15;;;-0.50;99.90;;;;;;5059479;28;20047;-72
2023/11/30 00:26:25;;;;;;;51.83;21.55;;;-0.40;99.90;;;;;;5059382;28;20052;-72
2023/11/30 00:28:54;;;;;;;44.83;20.35;;;-0.40;99.90;;;;;;5061691;28;20075;-72
2023/11/30 00:31:20;;;;;;;47.55;20.40;;;-0.40;99.90;;;;;;5061653;28;20043;-71
2023/11/30 00:33:46;;;;;;;46.22;21.02;;;-0.40;99.90;;;;;;5061908;28;20029;-74
2023/11/30 00:36:17;;;;;;;51.75;20.75;;;-0.30;99.90;;;;;;5059028;28;20116;-73
2023/11/30 00:38:43;;;;;;;55.45;21.05;;;-0.30;99.90;;;;;;5060434;28;20027;-73
2023/11/30 00:41:21;;;;;;;46.85;20.00;;;-0.30;99.90;;;;;;5059074;28;20101;-74
2023/11/30 00:43:50;;;;;;;41.35;19.52;;;-0.30;99.90;;;;;;5060519;28;20017;-73
2023/11/30 00:46:21;;;;;;;49.88;19.85;;;-0.30;99.90;;;;;;5059172;28;20024;-74
2023/11/30 00:48:47;;;;;;;46.95;19.52;;;-0.40;99.90;;;;;;5059065;28;20043;-71
2023/11/30 00:51:13;;;;;;;44.45;19.52;;;-0.40;99.90;;;;;;5060290;28;20064;-73
2023/11/30 00:53:40;;;;;;;49.03;19.17;;;-0.40;99.90;;;;;;5059213;28;20021;-71
2023/11/30 00:56:10;;;;;;;41.65;18.17;;;-0.40;99.90;;;;;;5058608;28;20508;-73
2023/11/30 00:58:37;;;;;;;42.13;18.20;;;-0.30;99.90;;;;;;5060164;28;20025;-74
2023/11/30 01:01:05;;;;;;;44.80;17.70;;;-0.30;99.90;;;;;;5058301;28;20057;-71
2023/11/30 01:03:37;;;;;;;48.20;18.58;;;-0.30;99.90;;;;;;5060867;28;20036;-74
2023/11/30 01:06:13;;;;;;;39.53;17.92;;;-0.40;99.90;;;;;;5059063;28;20017;-74
2023/11/30 01:08:42;;;;;;;42.53;17.73;;;-0.40;99.90;;;;;;5060198;28;20025;-73
2023/11/30 01:11:09;;;;;;;43.55;16.70;;;-0.40;99.90;;;;;;5057837;28;20116;-73
2023/11/30 01:13:39;;;;;;;39.97;18.08;;;-0.40;99.90;;;;;;5060103;28;20025;-73
2023/11/30 01:16:06;;;;;;;45.63;18.00;;;-0.50;99.90;;;;;;5059872;28;20036;-72
2023/11/30 01:18:34;;;;;;;39.28;17.63;;;-0.50;99.90;;;;;;5059193;28;20027;-73
2023/11/30 01:21:07;;;;;;;40.60;18.00;;;-0.50;99.90;;;;;;5056984;28;20091;-74
2023/11/30 01:23:42;;;;;;;36.08;17.27;;;-0.50;99.90;;;;;;5059231;28;20029;-73
2023/11/30 01:26:09;;;;;;;43.58;18.08;;;-0.50;99.90;;;;;;5059709;28;20021;-72
2023/11/30 01:28:36;;;;;;;37.38;16.30;;;-0.50;99.90;;;;;;5060028;28;20033;-74
2023/11/30 01:31:03;;;;;;;40.85;17.45;;;-0.50;99.90;;;;;;5058059;28;20036;-73
2023/11/30 01:33:36;;;;;;;39.78;17.33;;;-0.40;99.90;;;;;;5059626;28;20037;-74
2023/11/30 01:36:07;;;;;;;40.28;18.05;;;-0.40;99.90;;;;;;5059463;28;20025;-74
2023/11/30 01:38:33;;;;;;;41.58;17.55;;;-0.40;99.90;;;;;;5055998;28;20190;-73
2023/11/30 01:41:24;;;;;;;39.35;17.14;;;-0.30;99.90;;;;;;5040841;28;24814821;-71
2023/11/30 01:44:03;;;;;;;38.95;17.25;;;-0.30;99.90;;;;;;5046782;28;20264;-71
2023/11/30 01:46:43;;;;;;;40.90;16.10;;;-0.20;99.90;;;;;;5059929;28;20029;-74
2023/11/30 01:49:14;;;;;;;38.58;16.60;;;-0.20;99.90;;;;;;5060618;28;20044;-69
2023/11/30 01:52:08;;;;;;;41.80;16.98;;;-0.20;99.90;;;;;;5061189;28;20028;-73
2023/11/30 01:54:39;;;;;;;36.00;16.35;;;-0.20;99.90;;;;;;5063852;28;20028;-72
2023/11/30 01:57:19;;;;;;;37.47;17.40;;;-0.20;99.90;;;;;;5064122;28;20044;-74
2023/11/30 01:59:48;;;;;;;34.78;15.50;;;-0.20;99.90;;;;;;5061603;28;20060;-71
2023/11/30 02:02:43;;;;;;;40.40;17.45;;;-0.20;99.90;;;;;;5061830;28;20116;-74
2023/11/30 02:05:39;;;;;;;40.33;16.70;;;-0.20;99.90;;;;;;5062437;28;20024;-75
2023/11/30 02:08:12;;;;;;;42.30;16.33;;;-0.20;99.90;;;;;;5062524;28;20594;-71
2023/11/30 02:10:50;;;;;;;40.55;16.80;;;-0.20;99.90;;;;;;5062230;28;20406;-73
2023/11/30 02:13:26;;;;;;;40.85;17.02;;;-0.10;99.90;;;;;;5062181;28;20068;-71
2023/11/30 02:16:03;;;;;;;37.67;16.75;;;-0.10;99.90;;;;;;5062698;28;20029;-72
2023/11/30 02:18:36;;;;;;;39.95;16.88;;;-0.10;99.90;;;;;;5061233;28;20029;-72
2023/11/30 02:21:07;;;;;;;41.75;17.77;;;-0.10;99.90;;;;;;5063620;28;20045;-73
2023/11/30 02:24:09;;;;;;;42.40;17.50;;;-0.10;99.90;;;;;;5063510;28;20223;-75
2023/11/30 02:30:24;;;;;;;;;;;;;;;;;;;;;
2023/11/30 02:33:17;;;;;;;42.65;16.23;;;-0.10;99.90;;;;;;5060185;28;20036;-71
2023/11/30 02:36:08;;;;;;;39.42;16.20;;;-0.10;99.90;;;;;;5062892;28;20031;-71
2023/11/30 02:38:44;;;;;;;36.03;14.50;;;0.00;99.90;;;;;;5063242;28;20115;-72
2023/11/30 02:41:25;;;;;;;41.85;16.45;;;0.00;99.90;;;;;;5061344;28;20052;-71
2023/11/30 02:44:18;;;;;;;39.13;15.50;;;0.00;99.90;;;;;;5061451;28;20559;-74
2023/11/30 02:47:08;;;;;;;47.00;16.27;;;-0.10;99.90;;;;;;5061568;28;20021;-73
2023/11/30 02:49:47;;;;;;;37.47;15.25;;;-0.10;99.90;;;;;;5061842;28;20087;-75
2023/11/30 02:52:42;;;;;;;40.00;14.60;;;-0.10;99.90;;;;;;5061081;28;20055;-71
2023/11/30 02:55:08;;;;;;;33.00;14.03;;;-0.10;99.90;;;;;;5062236;28;20099;-72
2023/11/30 02:57:35;;;;;;;37.50;14.30;;;-0.10;99.90;;;;;;5061961;28;20036;-73
2023/11/30 03:00:12;;;;;;;37.90;14.50;;;-0.20;99.90;;;;;;5062611;28;20120;-74
2023/11/30 03:02:39;;;;;;;34.55;13.35;;;-0.20;99.90;;;;;;5060679;28;20056;-72
2023/11/30 03:05:05;;;;;;;42.38;14.93;;;-0.20;99.90;;;;;;5061586;28;20026;-71
2023/11/30 03:07:30;;;;;;;35.03;13.82;;;-0.30;99.90;;;;;;5061544;28;20025;-73
2023/11/30 03:09:56;;;;;;;36.40;13.30;;;-0.30;99.90;;;;;;5063043;28;20033;-70
2023/11/30 03:12:21;;;;;;;38.67;14.25;;;-0.30;99.90;;;;;;5062951;28;20455;-72
2023/11/30 03:14:47;;;;;;;33.58;14.10;;;-0.30;99.90;;;;;;5060854;28;20044;-72
2023/11/30 03:17:14;;;;;;;33.53;14.43;;;-0.30;99.90;;;;;;5061172;28;20033;-72
2023/11/30 03:19:44;;;;;;;43.72;15.68;;;-0.30;99.90;;;;;;5060651;28;20429;-71
2023/11/30 03:22:12;;;;;;;41.78;15.25;;;-0.30;99.90;;;;;;5061010;28;20033;-71
2023/11/30 03:24:44;;;;;;;37.97;15.90;;;-0.40;99.90;;;;;;5060104;28;20021;-73
2023/11/30 03:27:11;;;;;;;49.97;14.85;;;-0.40;99.90;;;;;;5062386;28;20044;-72
2023/11/30 03:29:40;;;;;;;39.35;15.65;;;-0.40;99.90;;;;;;5059834;28;20029;-73
2023/11/30 03:32:11;;;;;;;40.88;15.32;;;-0.40;99.90;;;;;;5060796;28;20032;-73
2023/11/30 03:34:42;;;;;;;35.35;15.20;;;-0.40;99.90;;;;;;5061234;28;20044;-72
2023/11/30 03:37:17;;;;;;;38.83;14.60;;;-0.40;99.90;;;;;;5060331;28;20040;-71
2023/11/30 03:39:53;;;;;;;46.58;16.33;;;-0.40;99.90;;;;;;5060162;28;20041;-73
2023/11/30 03:42:22;;;;;;;42.17;15.23;;;-0.30;99.90;;;;;;5061867;28;20061;-73
2023/11/30 03:44:48;;;;;;;37.65;15.00;;;-0.40;99.90;;;;;;5061684;28;20044;-72
2023/11/30 03:47:14;;;;;;;47.05;15.75;;;-0.40;99.90;;;;;;5062337;28;20064;-71
2023/11/30 03:49:45;;;;;;;38.85;14.95;;;-0.40;99.90;;;;;;5061604;28;20025;-73
2023/11/30 03:52:23;;;;;;;39.88;15.52;;;-0.40;99.90;;;;;;5061954;28;20040;-72
2023/11/30 03:54:52;;;;;;;58.38;16.35;;;-0.30;99.90;;;;;;5060451;28;20037;-71
2023/11/30 03:57:24;;;;;;;263.95;19.88;;;-0.30;99.90;;;;;;5060755;28;20047;-73
2023/11/30 03:59:51;;;;;;;42.13;14.55;;;-0.30;99.90;;;;;;5059238;28;20127;-72
2023/11/30 04:02:16;;;;;;;38.88;15.60;;;-0.30;99.90;;;;;;5058903;28;20054;-71
2023/11/30 04:04:42;;;;;;;109.53;17.23;;;-0.30;99.90;;;;;;5062026;28;20064;-72
2023/11/30 04:07:08;;;;;;;42.45;15.63;;;-0.30;99.90;;;;;;5062156;28;20128;-70
2023/11/30 04:09:37;;;;;;;42.03;16.10;;;-0.30;99.90;;;;;;5062036;28;20028;-73
2023/11/30 04:12:03;;;;;;;124.10;17.20;;;-0.30;99.90;;;;;;5059224;28;20045;-72
2023/11/30 04:14:33;;;;;;;88.97;16.75;;;-0.30;99.90;;;;;;5061081;28;20017;-72
2023/11/30 04:17:23;;;;;;;83.32;14.82;;;-0.30;99.90;;;;;;5061360;28;20044;-73
2023/11/30 04:19:55;;;;;;;140.60;16.63;;;-0.30;99.90;;;;;;5058864;28;20197;-73
2023/11/30 04:22:23;;;;;;;54.58;15.85;;;-0.30;99.90;;;;;;5060738;28;20036;-70
2023/11/30 04:24:52;;;;;;;67.30;17.35;;;-0.30;99.90;;;;;;5057867;28;20048;-71
2023/11/30 04:27:18;;;;;;;58.92;16.90;;;-0.30;99.90;;;;;;5060247;28;20410;-71
2023/11/30 04:29:45;;;;;;;257.25;20.38;;;-0.30;99.90;;;;;;5059915;28;20032;-72
2023/11/30 04:32:14;;;;;;;212.35;18.88;;;-0.30;99.90;;;;;;5058114;28;20067;-70
2023/11/30 04:34:51;;;;;;;55.72;16.98;;;-0.30;99.90;;;;;;5060133;28;20029;-73
2023/11/30 04:37:44;;;;;;;72.57;17.00;;;-0.30;99.90;;;;;;5061021;28;20139;-73
2023/11/30 04:40:24;;;;;;;151.40;17.80;;;-0.30;99.90;;;;;;5060711;28;20041;-72
2023/11/30 04:42:51;;;;;;;48.78;16.10;;;-0.30;99.90;;;;;;5056512;28;20571;-71
2023/11/30 04:45:20;;;;;;;42.53;15.45;;;-0.30;99.90;;;;;;5059323;28;20041;-73
2023/11/30 04:47:49;;;;;;;379.67;23.95;;;-0.40;99.90;;;;;;5059205;28;20124;-74
2023/11/30 04:50:16;;;;;;;105.03;16.80;;;-0.30;99.90;;;;;;5059442;28;20025;-73
2023/11/30 04:52:45;;;;;;;102.05;17.30;;;-0.40;99.90;;;;;;5058312;28;20049;-72
2023/11/30 04:55:11;;;;;;;65.18;16.88;;;-0.40;99.90;;;;;;5059224;28;20106;-71
2023/11/30 04:57:40;;;;;;;44.55;16.25;;;-0.40;99.90;;;;;;5061076;28;20470;-73
2023/11/30 05:00:06;;;;;;;402.95;23.75;;;-0.40;99.90;;;;;;5059243;28;20405;-73
2023/11/30 05:02:35;;;;;;;413.98;24.85;;;-0.40;99.90;;;;;;5060637;28;20021;-71
2023/11/30 05:05:06;;;;;;;497.27;26.30;;;-0.40;99.90;;;;;;5058654;28;20013;-73
2023/11/30 05:07:32;;;;;;;297.50;22.70;;;-0.40;99.90;;;;;;5058840;28;20032;-74
2023/11/30 05:09:58;;;;;;;103.70;16.45;;;-0.40;99.90;;;;;;5059425;28;20029;-70
2023/11/30 05:12:25;;;;;;;292.45;21.23;;;-0.40;99.90;;;;;;5058822;28;20039;-72
2023/11/30 05:15:07;;;;;;;364.85;22.10;;;-0.50;99.90;;;;;;5058463;28;20036;-72
2023/11/30 05:17:33;;;;;;;154.68;20.02;;;-0.50;99.90;;;;;;5060823;28;20017;-70
2023/11/30 05:19:58;;;;;;;166.75;18.65;;;-0.50;99.90;;;;;;5059985;28;20170;-71
2023/11/30 05:22:25;;;;;;;273.35;20.70;;;-0.50;99.90;;;;;;5058846;28;20036;-71
2023/11/30 05:24:54;;;;;;;535.00;28.05;;;-0.50;99.90;;;;;;5058646;28;20024;-71
2023/11/30 05:27:20;;;;;;;252.70;19.23;;;-0.60;99.90;;;;;;5058772;28;20957;-70
2023/11/30 05:29:46;;;;;;;287.08;23.45;;;-0.70;99.90;;;;;;5059447;28;20047;-71
2023/11/30 05:32:11;;;;;;;76.63;16.95;;;-0.70;99.90;;;;;;5058346;28;20486;-72
2023/11/30 05:34:40;;;;;;;313.05;22.10;;;-0.70;99.90;;;;;;5060334;28;20026;-72
2023/11/30 05:37:09;;;;;;;171.40;18.77;;;-0.70;99.90;;;;;;5057578;28;20017;-73
2023/11/30 05:39:45;;;;;;;313.48;21.25;;;-0.80;99.90;;;;;;5059061;28;20107;-72
2023/11/30 05:42:11;;;;;;;243.20;19.33;;;-0.80;99.90;;;;;;5057288;28;20049;-73
2023/11/30 05:44:37;;;;;;;271.05;22.17;;;-0.80;99.90;;;;;;5061037;28;20063;-72
2023/11/30 05:47:10;;;;;;;128.32;18.95;;;-0.70;99.90;;;;;;5060838;28;20045;-73
2023/11/30 05:49:36;;;;;;;57.13;16.73;;;-0.70;99.90;;;;;;5060395;28;20115;-68
2023/11/30 05:52:04;;;;;;;123.28;18.42;;;-0.70;99.90;;;;;;5059446;28;20386;-70
2023/11/30 05:54:38;;;;;;;64.18;16.90;;;-0.70;99.90;;;;;;5061246;28;20088;-73
2023/11/30 05:57:06;;;;;;;48.60;16.05;;;-0.70;99.90;;;;;;5060400;28;20115;-69
2023/11/30 05:59:44;;;;;;;56.22;17.65;;;-0.70;99.90;;;;;;5057275;28;20045;-71
2023/11/30 06:02:10;;;;;;;49.88;16.88;;;-0.80;99.90;;;;;;5058530;28;20033;-71
2023/11/30 06:04:51;;;;;;;437.92;26.60;;;-0.80;99.90;;;;;;5058210;28;20023;-73
2023/11/30 06:07:26;;;;;;;318.92;23.23;;;-0.80;99.90;;;;;;5059219;28;20049;-71
2023/11/30 06:09:52;;;;;;;93.95;19.05;;;-0.80;99.90;;;;;;5058658;28;20024;-71
2023/11/30 06:12:18;;;;;;;48.00;17.55;;;-0.80;99.90;;;;;;5058409;28;20029;-70
2023/11/30 06:14:44;;;;;;;46.65;17.60;;;-0.90;99.90;;;;;;5057930;28;20033;-69
2023/11/30 06:17:12;;;;;;;134.50;18.77;;;-0.90;99.90;;;;;;5058076;28;20021;-69
2023/11/30 06:19:44;;;;;;;91.20;19.40;;;-0.80;99.90;;;;;;5056697;28;20114;-69
2023/11/30 06:22:16;;;;;;;57.20;18.67;;;-0.80;99.90;;;;;;5058555;28;20021;-72
2023/11/30 06:24:43;;;;;;;58.42;18.58;;;-0.80;99.90;;;;;;5058178;28;20367;-72
2023/11/30 06:27:22;;;;;;;105.80;22.55;;;-0.80;99.90;;;;;;5059503;28;20088;-74
2023/11/30 06:29:51;;;;;;;181.80;19.65;;;-0.80;99.90;;;;;;5057655;28;20074;-73
2023/11/30 06:32:17;;;;;;;146.27;20.15;;;-0.80;99.90;;;;;;5057466;28;20029;-73
2023/11/30 06:34:42;;;;;;;50.90;18.40;;;-0.80;99.90;;;;;;5061432;28;20120;-73
2023/11/30 06:37:08;;;;;;;67.47;17.60;;;-0.80;99.90;;;;;;5058498;28;20052;-72
2023/11/30 06:39:33;;;;;;;50.88;18.05;;;-0.80;99.90;;;;;;5063446;28;20144;-71
2023/11/30 06:41:59;;;;;;;241.00;21.33;;;-0.90;99.90;;;;;;5064328;28;20453;-71
2023/11/30 06:44:25;;;;;;;143.85;19.48;;;-0.90;99.90;;;;;;5062922;28;20035;-71
2023/11/30 06:46:53;;;;;;;80.45;20.52;;;-0.90;99.90;;;;;;5062716;28;20504;-71
2023/11/30 06:49:22;;;;;;;122.18;21.40;;;-0.90;99.90;;;;;;5054691;28;20037;-72
2023/11/30 06:51:49;;;;;;;279.67;22.65;;;-0.90;99.90;;;;;;5059678;28;20044;-75
2023/11/30 06:54:15;;;;;;;162.35;22.13;;;-0.90;99.90;;;;;;5058568;28;20055;-74
2023/11/30 06:56:44;;;;;;;54.38;20.55;;;-0.90;99.90;;;;;;5051786;28;20112;-72
2023/11/30 06:59:10;;;;;;;231.75;25.10;;;-0.90;99.90;;;;;;5060318;28;20025;-71
2023/11/30 07:01:42;;;;;;;208.88;22.63;;;-0.90;99.90;;;;;;5061852;28;20078;-73
2023/11/30 07:04:08;;;;;;;359.55;27.85;;;-1.00;99.90;;;;;;5062267;28;20085;-69
2023/11/30 07:06:34;;;;;;;356.80;25.67;;;-1.00;99.90;;;;;;5062358;28;20052;-71
2023/11/30 07:09:05;;;;;;;129.63;23.58;;;-1.00;99.90;;;;;;5062380;28;20025;-72
2023/11/30 07:11:35;;;;;;;181.38;24.42;;;-1.00;99.90;;;;;;5062392;28;20383;-71
2023/11/30 07:14:10;;;;;;;242.93;24.17;;;-1.00;99.90;;;;;;5061857;28;20063;-70
2023/11/30 07:16:37;;;;;;;70.80;20.70;;;-1.00;99.90;;;;;;5063529;28;20084;-72
2023/11/30 07:19:03;;;;;;;109.30;22.85;;;-1.00;99.90;;;;;;5063631;28;20029;-72
2023/11/30 07:21:31;;;;;;;95.20;23.65;;;-1.10;99.90;;;;;;5061872;28;20033;-72
2023/11/30 07:24:09;;;;;;;192.13;23.17;;;-1.10;99.90;;;;;;5062409;28;20021;-70
2023/11/30 07:26:36;;;;;;;157.60;23.88;;;-1.00;99.90;;;;;;5063005;28;20021;-71
2023/11/30 07:29:02;;;;;;;129.27;22.17;;;-1.00;99.90;;;;;;5062069;28;20051;-71
2023/11/30 07:31:28;;;;;;;104.60;20.92;;;-1.00;99.90;;;;;;5063071;28;20020;-71
2023/11/30 07:33:54;;;;;;;174.32;23.08;;;-1.00;99.90;;;;;;5063069;28;20100;-71
2023/11/30 07:36:19;;;;;;;215.02;23.85;;;-1.00;99.90;;;;;;5061602;28;20523;-73
2023/11/30 07:38:45;;;;;;;233.23;23.50;;;-1.00;99.90;;;;;;5061464;28;20215;-72
2023/11/30 07:41:12;;;;;;;145.00;23.77;;;-1.00;99.90;;;;;;5061527;28;20037;-72
2023/11/30 07:43:37;;;;;;;138.73;24.77;;;-1.00;99.90;;;;;;5062700;28;20124;-71
2023/11/30 07:46:03;;;;;;;345.02;26.85;;;-1.00;99.90;;;;;;5061383;28;20505;-74
2023/11/30 07:48:30;;;;;;;141.38;25.65;;;-1.00;99.90;;;;;;5059341;28;20033;-71
2023/11/30 07:50:56;;;;;;;326.27;27.17;;;-1.00;99.90;;;;;;5053587;28;20342;-71
2023/11/30 07:53:23;;;;;;;176.82;25.67;;;-1.00;99.90;;;;;;5061563;28;20115;-72
2023/11/30 07:55:54;;;;;;;156.27;24.17;;;-1.10;99.90;;;;;;5061565;28;20067;-72
2023/11/30 07:58:21;;;;;;;177.63;24.13;;;-1.10;99.90;;;;;;5060475;28;20178;-72
2023/11/30 08:00:48;;;;;;;187.13;23.45;;;-1.00;99.90;;;;;;5059643;28;20045;-70
2023/11/30 08:03:13;;;;;;;77.78;20.75;;;-1.00;99.90;;;;;;5057951;28;20041;-73
2023/11/30 08:05:40;;;;;;;348.95;25.27;;;-1.00;99.90;;;;;;5061256;28;20023;-71
2023/11/30 08:08:10;;;;;;;143.57;22.42;;;-1.00;99.90;;;;;;5061212;28;20028;-72
2023/11/30 08:10:36;;;;;;;192.90;21.73;;;-1.00;99.90;;;;;;5058313;28;20040;-69
2023/11/30 08:13:03;;;;;;;186.13;23.10;;;-1.00;99.90;;;;;;5061954;28;20021;-72
2023/11/30 08:15:30;;;;;;;111.22;21.70;;;-1.00;99.90;;;;;;5062321;28;20048;-71
2023/11/30 08:17:55;;;;;;;273.23;24.05;;;-1.00;99.90;;;;;;5061483;28;20029;-71
2023/11/30 08:20:22;;;;;;;58.92;18.27;;;-0.90;99.90;;;;;;5060304;28;20536;-72
2023/11/30 08:22:48;;;;;;;69.78;18.27;;;-1.00;99.90;;;;;;5061543;28;20021;-71
2023/11/30 08:25:15;;;;;;;276.50;22.88;;;-1.00;99.90;;;;;;5060513;28;20040;-70
2023/11/30 08:27:42;;;;;;;153.13;21.80;;;-0.90;99.90;;;;;;5059607;28;20051;-71
2023/11/30 08:30:09;;;;;;;241.65;22.33;;;-0.90;99.90;;;;;;5059358;28;20033;-73
2023/11/30 08:32:37;;;;;;;167.07;20.95;;;-0.90;99.90;;;;;;5060778;28;20021;-71
2023/11/30 08:35:13;;;;;;;171.10;21.30;;;-0.80;99.90;;;;;;5054864;28;20082;-74
2023/11/30 08:37:55;;;;;;;257.30;22.30;;;-0.80;99.90;;;;;;5055072;28;20032;-73
2023/11/30 08:40:21;;;;;;;137.25;20.45;;;-0.80;99.90;;;;;;5058419;28;20072;-73
2023/11/30 08:42:47;;;;;;;76.47;18.85;;;-0.80;99.90;;;;;;5059110;28;20061;-72
2023/11/30 08:45:13;;;;;;;232.13;21.35;;;-0.90;99.90;;;;;;5059829;28;20087;-72
2023/11/30 08:47:39;;;;;;;138.55;18.85;;;-0.80;99.90;;;;;;5060946;28;20043;-73
2023/11/30 08:50:06;;;;;;;138.10;18.60;;;-0.90;99.90;;;;;;5058036;28;20036;-72
2023/11/30 08:52:41;;;;;;;99.93;16.20;;;-0.90;99.90;;;;;;5059681;28;20041;-72
2023/11/30 08:55:08;;;;;;;185.02;17.20;;;-1.00;99.90;;;;;;5061882;28;20025;-70
2023/11/30 08:57:44;;;;;;;75.18;19.13;;;-1.10;99.90;;;;;;5059606;28;20073;-72
2023/11/30 09:00:12;;;;;;;179.27;21.15;;;-1.20;99.90;;;;;;5059370;28;20033;-73
2023/11/30 09:02:39;;;;;;;94.43;19.52;;;-1.20;99.90;;;;;;5056881;28;20059;-74
2023/11/30 09:05:08;;;;;;;344.92;23.25;;;-1.20;99.90;;;;;;5055569;28;20029;-73
2023/11/30 09:07:37;;;;;;;175.65;17.45;;;-1.20;99.90;;;;;;5057193;28;20055;-72
2023/11/30 09:10:04;;;;;;;135.88;16.42;;;-1.20;99.90;;;;;;5052452;28;20047;-74
2023/11/30 09:12:30;;;;;;;68.70;15.13;;;-1.10;99.90;;;;;;5058984;28;20047;-74
2023/11/30 09:14:56;;;;;;;167.07;19.42;;;-1.10;99.90;;;;;;5054928;28;20033;-71
2023/11/30 09:17:25;;;;;;;90.70;16.08;;;-1.00;99.90;;;;;;5056788;28;20029;-72
2023/11/30 09:20:19;;;;;;;156.43;17.27;;;-0.80;99.90;;;;;;5058726;28;20041;-71
2023/11/30 09:25:29;;;;;;;127.43;17.23;;;-0.40;99.90;;;;;;3150353;26;20060;-71
2023/11/30 09:27:54;;;;;;;128.73;15.07;;;-0.40;99.90;;;;;;5003557;28;20038;-71
2023/11/30 09:30:20;;;;;;;178.85;17.45;;;-0.40;99.90;;;;;;5007784;28;20065;-72
2023/11/30 09:32:46;;;;;;;184.98;17.50;;;-0.50;99.90;;;;;;5014052;28;20034;-72
2023/11/30 09:35:11;;;;;;;119.38;12.05;;;-0.70;99.90;;;;;;5010048;28;20025;-72
2023/11/30 09:37:37;;;;;;;135.25;16.58;;;-0.90;99.90;;;;;;5010801;28;20037;-73
2023/11/30 09:40:05;;;;;;;182.60;16.83;;;-1.00;99.90;;;;;;5008682;28;20040;-73
2023/11/30 09:42:32;;;;;;;60.60;15.73;;;-1.00;99.90;;;;;;5010416;28;20026;-73
2023/11/30 09:45:07;;;;;;;64.03;16.05;;;-1.10;99.90;;;;;;5010264;28;20122;-72
2023/11/30 09:47:33;;;;;;;80.68;16.48;;;-1.00;99.90;;;;;;5010715;28;20030;-73
2023/11/30 09:50:00;;;;;;;89.03;17.48;;;-1.00;99.90;;;;;;5011199;28;20037;-72
2023/11/30 09:52:27;;;;;;;134.73;17.77;;;-1.00;99.90;;;;;;5007017;28;20022;-72
2023/11/30 09:54:57;;;;;;;138.13;19.60;;;-1.00;99.90;;;;;;5008009;28;20045;-72
2023/11/30 09:57:23;;;;;;;180.60;19.10;;;-1.00;99.90;;;;;;5011141;28;20132;-72
2023/11/30 09:59:50;;;;;;;61.15;17.60;;;-1.00;99.90;;;;;;5006701;28;20034;-72
2023/11/30 10:02:16;;;;;;;74.25;17.92;;;-1.00;99.90;;;;;;5009089;28;20033;-73
2023/11/30 10:04:42;;;;;;;124.57;17.90;;;-1.00;99.90;;;;;;5010402;28;20026;-73
2023/11/30 10:07:07;;;;;;;74.35;17.15;;;-1.00;99.90;;;;;;5010491;28;20026;-74
2023/11/30 10:09:35;;;;;;;143.18;18.98;;;-0.90;99.90;;;;;;5009342;28;20120;-73
2023/11/30 10:12:01;;;;;;;118.05;18.42;;;-0.90;99.90;;;;;;5013998;28;20979;-73
2023/11/30 10:14:27;;;;;;;192.75;20.13;;;-0.90;99.90;;;;;;5012372;28;20486;-73
2023/11/30 10:16:53;;;;;;;118.10;18.83;;;-0.90;99.90;;;;;;5015550;28;20045;-72
2023/11/30 10:19:18;;;;;;;94.28;19.58;;;-0.80;99.90;;;;;;5029481;28;20101;-73
2023/11/30 10:21:44;;;;;;;64.80;18.80;;;-0.90;99.90;;;;;;5013139;28;20549;-72
2023/11/30 10:24:10;;;;;;;57.58;18.77;;;-0.80;99.90;;;;;;5011244;28;20065;-72
2023/11/30 10:26:36;;;;;;;55.85;18.35;;;-0.70;99.90;;;;;;5011750;28;20022;-73
2023/11/30 10:29:06;;;;;;;46.75;15.50;;;-0.70;99.90;;;;;;5011667;28;20022;-70
2023/11/30 10:31:37;;;;;;;45.10;15.65;;;-0.70;99.90;;;;;;5010540;28;20062;-73
2023/11/30 10:34:11;;;;;;;107.07;15.75;;;-0.60;99.90;;;;;;5013175;28;20054;-70
2023/11/30 10:36:38;;;;;;;42.65;13.90;;;-0.60;99.90;;;;;;5014405;28;20026;-72
2023/11/30 10:39:18;;;;;;;52.03;14.05;;;-0.50;99.90;;;;;;5012856;28;20033;-72
2023/11/30 10:41:55;;;;;;;38.17;13.45;;;-0.60;99.90;;;;;;5013150;28;20080;-71
2023/11/30 10:44:29;;;;;;;73.15;13.20;;;-0.50;99.90;;;;;;5013014;28;20042;-71
2023/11/30 10:46:57;;;;;;;63.83;13.95;;;-0.60;99.90;;;;;;5011122;28;20045;-72
2023/11/30 10:49:24;;;;;;;38.67;13.40;;;-0.50;99.90;;;;;;5008722;28;20038;-71
2023/11/30 10:51:51;;;;;;;44.28;14.63;;;-0.60;99.90;;;;;;5005705;28;20022;-72
2023/11/30 10:54:44;;;;;;;43.17;11.95;;;-0.60;99.90;;;;;;5009536;28;20041;-71
2023/11/30 10:57:10;;;;;;;45.97;12.75;;;-0.60;99.90;;;;;;4999555;28;20057;-72
2023/11/30 10:59:41;;;;;;;46.50;12.68;;;-0.60;99.90;;;;;;5006588;28;20370;-71
2023/11/30 11:02:09;;;;;;;66.32;11.27;;;-0.50;99.90;;;;;;5008898;28;20045;-73
2023/11/30 11:04:39;;;;;;;43.47;10.75;;;-0.50;99.90;;;;;;5008628;28;20049;-71
2023/11/30 11:07:12;;;;;;;32.17;10.50;;;-0.50;99.90;;;;;;5009207;28;20025;-72
2023/11/30 11:09:41;;;;;;;48.83;12.90;;;-0.50;99.90;;;;;;5010462;28;20035;-72
2023/11/30 11:12:19;;;;;;;29.13;10.45;;;-0.40;99.90;;;;;;5011837;28;20061;-71
2023/11/30 11:14:45;;;;;;;33.30;10.20;;;-0.40;99.90;;;;;;5012336;28;20057;-72
2023/11/30 11:17:10;;;;;;;59.15;10.65;;;-0.40;99.90;;;;;;5008573;28;20086;-73
2023/11/30 11:19:44;;;;;;;31.17;10.70;;;-0.30;99.90;;;;;;5007596;28;20058;-72
2023/11/30 11:22:19;;;;;;;39.17;11.75;;;-0.30;99.90;;;;;;5013517;28;20022;-72
2023/11/30 11:24:47;;;;;;;30.58;11.00;;;-0.20;99.90;;;;;;5012527;28;20038;-71
2023/11/30 11:27:26;;;;;;;29.65;11.93;;;-0.20;99.90;;;;;;5010714;28;20045;-72
2023/11/30 11:29:55;;;;;;;43.17;11.27;;;-0.20;99.90;;;;;;5012995;28;20394;-71
2023/11/30 11:32:24;;;;;;;39.75;11.82;;;-0.20;99.90;;;;;;5010286;28;20038;-72
2023/11/30 11:34:49;;;;;;;33.55;12.50;;;-0.20;99.90;;;;;;5005556;28;21174;-72
2023/11/30 11:37:15;;;;;;;36.40;11.77;;;-0.20;99.90;;;;;;5006089;28;20052;-72
2023/11/30 11:39:41;;;;;;;46.00;11.63;;;-0.20;99.90;;;;;;5001372;28;20509;-74
2023/11/30 11:42:10;;;;;;;31.13;11.27;;;-0.20;99.90;;;;;;5004615;28;20050;-72
2023/11/30 11:44:36;;;;;;;45.88;12.45;;;-0.20;99.90;;;;;;5013580;28;20042;-72
2023/11/30 11:47:03;;;;;;;27.77;10.57;;;-0.20;99.90;;;;;;4999543;28;20023;-71
2023/11/30 11:49:28;;;;;;;33.45;11.00;;;-0.20;99.90;;;;;;5010742;28;20121;-72
2023/11/30 11:51:54;;;;;;;28.02;10.30;;;-0.20;99.90;;;;;;5013524;28;20061;-71
2023/11/30 11:54:22;;;;;;;45.83;10.60;;;-0.30;99.90;;;;;;5010644;28;20058;-72
2023/11/30 11:56:53;;;;;;;32.08;11.07;;;-0.30;99.90;;;;;;5007809;28;20062;-70
2023/11/30 11:59:26;;;;;;;26.13;10.32;;;-0.20;99.90;;;;;;5007374;28;20551;-71
2023/11/30 12:01:53;;;;;;;28.65;10.73;;;-0.30;99.90;;;;;;5001731;28;20042;-72
2023/11/30 12:04:30;;;;;;;22.40;9.25;;;-0.30;99.90;;;;;;5003119;28;20134;-71
2023/11/30 12:07:00;;;;;;;47.90;9.57;;;-0.30;99.90;;;;;;4995731;28;20022;-72
2023/11/30 12:09:26;;;;;;;33.20;9.93;;;-0.30;99.90;;;;;;4996043;28;20049;-72
2023/11/30 12:11:54;;;;;;;28.88;9.90;;;-0.30;99.90;;;;;;5003370;28;20663;-72
2023/11/30 12:14:20;;;;;;;23.80;9.10;;;-0.20;99.90;;;;;;5004413;28;20135;-72
2023/11/30 12:16:46;;;;;;;26.60;9.57;;;-0.20;99.90;;;;;;5007508;28;20076;-72
2023/11/30 12:19:12;;;;;;;24.42;9.95;;;-0.30;99.90;;;;;;5005687;28;20053;-72
2023/11/30 12:21:39;;;;;;;30.70;11.15;;;-0.20;99.90;;;;;;5005759;28;20531;-71
2023/11/30 12:24:06;;;;;;;29.05;10.57;;;-0.30;99.90;;;;;;5009961;28;20117;-72
2023/11/30 12:26:31;;;;;;;40.53;11.02;;;-0.20;99.90;;;;;;5008637;28;20082;-72
2023/11/30 12:28:58;;;;;;;34.85;11.32;;;-0.20;99.90;;;;;;5007559;28;20064;-72
2023/11/30 12:31:24;;;;;;;38.42;11.80;;;-0.20;99.90;;;;;;5008640;28;20029;-72
2023/11/30 12:33:50;;;;;;;29.80;10.63;;;-0.20;99.90;;;;;;5008819;28;20031;-71
2023/11/30 12:36:16;;;;;;;31.73;11.73;;;-0.20;99.90;;;;;;5002416;28;20106;-71
2023/11/30 12:38:42;;;;;;;28.45;10.95;;;-0.20;99.90;;;;;;5003564;28;20053;-72
2023/11/30 12:41:07;;;;;;;32.78;12.35;;;-0.20;99.90;;;;;;5001191;28;20163;-72
2023/11/30 12:43:33;;;;;;;39.63;11.68;;;-0.20;99.90;;;;;;5004552;28;20529;-73
2023/11/30 12:45:59;;;;;;;32.25;10.90;;;-0.20;99.90;;;;;;5006909;28;20708;-72